createdAt,value
2022-12-14T00:01:37.105Z,9.80
2022-12-14T00:04:04.003Z,10.23
2022-12-14T00:06:33.811Z,10.13
2022-12-14T00:09:02.972Z,10.75
2022-12-14T00:11:30.338Z,9.82
2022-12-14T00:14:02.542Z,10.57
2022-12-14T00:16:32.177Z,9.95
2022-12-14T00:19:00.408Z,9.88
2022-12-14T00:21:27.782Z,9.60
2022-12-14T00:23:55.626Z,9.68
2022-12-14T00:26:25.288Z,10.73
2022-12-14T00:28:54.836Z,9.82
2022-12-14T00:31:22.537Z,10.40
2022-12-14T00:33:53.119Z,9.98
2022-12-14T00:36:20.349Z,9.57
2022-12-14T00:38:47.325Z,9.95
2022-12-14T00:41:14.184Z,9.23
2022-12-14T00:43:41.337Z,9.88
2022-12-14T00:46:08.345Z,9.57
2022-12-14T00:48:35.625Z,10.35
2022-12-14T00:51:02.542Z,9.55
2022-12-14T00:53:29.269Z,9.07
2022-12-14T00:55:56.026Z,9.23
2022-12-14T00:58:25.232Z,9.52
2022-12-14T01:01:06.621Z,9.20
2022-12-14T01:03:34.023Z,9.02
2022-12-14T01:06:01.047Z,10.05
2022-12-14T01:08:35.530Z,10.15
2022-12-14T01:11:10.181Z,10.40
2022-12-14T01:13:38.531Z,9.88
2022-12-14T01:16:07.667Z,9.50
2022-12-14T01:18:35.732Z,8.77
2022-12-14T01:21:12.979Z,9.15
2022-12-14T01:23:39.916Z,10.00
2022-12-14T01:26:06.971Z,9.48
2022-12-14T01:28:35.412Z,9.70
2022-12-14T01:31:10.870Z,9.35
2022-12-14T01:33:37.829Z,9.40
2022-12-14T01:36:16.709Z,9.57
2022-12-14T01:38:44.309Z,9.98
2022-12-14T01:41:25.534Z,10.32
2022-12-14T01:43:53.778Z,10.55
2022-12-14T01:46:55.665Z,9.07
2022-12-14T01:49:40.632Z,8.52
2022-12-14T01:52:16.131Z,10.75
2022-12-14T01:55:04.032Z,8.85
2022-12-14T01:57:50.591Z,10.25
2022-12-14T02:00:18.034Z,8.68
2022-12-14T02:03:08.285Z,10.70
2022-12-14T02:05:41.449Z,8.95
2022-12-14T02:08:08.799Z,9.13
2022-12-14T02:10:35.933Z,9.10
2022-12-14T02:13:14.683Z,8.95
2022-12-14T02:15:42.490Z,9.20
2022-12-14T02:18:15.879Z,7.97
2022-12-14T02:21:08.150Z,8.75
2022-12-14T02:23:55.912Z,6.90
2022-12-14T02:26:47.542Z,10.13
2022-12-14T02:29:36.891Z,9.65
2022-12-14T02:32:48.286Z,9.23
2022-12-14T02:35:52.177Z,9.02
2022-12-14T02:38:28.060Z,9.32
2022-12-14T02:41:12.653Z,7.60
2022-12-14T02:43:48.186Z,9.35
2022-12-14T02:46:51.952Z,9.32
2022-12-14T02:49:56.439Z,9.70
2022-12-14T02:52:30.457Z,9.93
2022-12-14T02:55:06.236Z,9.25
2022-12-14T02:57:39.547Z,9.93
2022-12-14T03:00:07.397Z,8.98
2022-12-14T03:02:39.629Z,9.30
2022-12-14T03:05:06.706Z,10.70
2022-12-14T03:07:53.621Z,9.77
2022-12-14T03:10:32.138Z,8.95
2022-12-14T03:13:28.814Z,9.07
2022-12-14T03:16:01.593Z,9.10
2022-12-14T03:18:34.395Z,9.30
2022-12-14T03:21:03.118Z,8.95
2022-12-14T03:23:34.954Z,9.60
2022-12-14T03:26:16.066Z,10.00
2022-12-14T03:28:51.860Z,9.32
2022-12-14T03:31:33.950Z,9.23
2022-12-14T03:34:03.598Z,9.00
2022-12-14T03:36:40.571Z,8.98
2022-12-14T03:39:09.817Z,9.55
2022-12-14T03:41:52.545Z,9.52
2022-12-14T03:44:49.680Z,9.00
2022-12-14T03:47:35.531Z,9.15
2022-12-14T03:50:17.709Z,9.73
2022-12-14T03:52:56.630Z,9.30
2022-12-14T03:55:41.739Z,9.63
2022-12-14T03:58:31.487Z,9.75
2022-12-14T04:01:11.823Z,9.40
2022-12-14T04:04:00.810Z,9.77
2022-12-14T04:06:31.260Z,9.02
2022-12-14T04:09:15.347Z,9.43
2022-12-14T04:12:07.827Z,9.57
2022-12-14T04:14:57.876Z,8.98
2022-12-14T04:17:49.089Z,9.55
2022-12-14T04:20:36.429Z,9.52
2022-12-14T04:23:10.356Z,8.60
2022-12-14T04:26:01.328Z,8.73
2022-12-14T04:29:00.336Z,9.10
2022-12-14T04:31:30.817Z,8.45
2022-12-14T04:34:02.276Z,9.02
2022-12-14T04:36:34.924Z,9.32
2022-12-14T04:41:41.197Z,8.13
2022-12-14T04:44:15.895Z,8.20
2022-12-14T04:46:44.324Z,9.00
2022-12-14T04:49:20.086Z,8.60
2022-12-14T04:51:53.849Z,8.52
2022-12-14T04:54:25.307Z,9.02
2022-12-14T04:57:05.116Z,9.63
2022-12-14T04:59:32.283Z,8.38
2022-12-14T05:02:09.112Z,9.05
2022-12-14T05:04:55.134Z,8.82
2022-12-14T05:07:55.559Z,8.98
2022-12-14T05:10:41.857Z,9.45
2022-12-14T05:13:24.611Z,9.50
2022-12-14T05:18:20.368Z,9.63
2022-12-14T05:20:48.092Z,8.80
2022-12-14T05:23:15.959Z,8.60
2022-12-14T05:25:42.708Z,8.95
2022-12-14T05:28:13.057Z,9.80
2022-12-14T05:30:40.049Z,8.98
2022-12-14T05:33:07.011Z,10.68
2022-12-14T05:35:33.764Z,9.00
2022-12-14T05:38:00.505Z,9.80
2022-12-14T05:40:27.280Z,9.38
2022-12-14T05:43:04.777Z,9.38
2022-12-14T05:45:31.726Z,10.25
2022-12-14T05:47:58.450Z,9.88
2022-12-14T05:50:25.277Z,10.68
2022-12-14T05:52:53.186Z,8.77
2022-12-14T05:55:19.992Z,9.05
2022-12-14T05:57:46.784Z,9.77
2022-12-14T06:00:14.498Z,9.48
2022-12-14T06:02:41.208Z,9.50
2022-12-14T06:05:08.343Z,10.18
2022-12-14T06:07:35.127Z,10.35
2022-12-14T06:10:01.833Z,9.73
2022-12-14T06:12:28.588Z,8.80
2022-12-14T06:14:55.279Z,8.65
2022-12-14T06:17:22.078Z,9.20
2022-12-14T06:19:49.761Z,9.98
2022-12-14T06:22:18.308Z,9.52
2022-12-14T06:24:45.029Z,9.40
2022-12-14T06:27:11.812Z,9.30
2022-12-14T06:29:38.641Z,9.07
2022-12-14T06:32:05.545Z,9.25
2022-12-14T06:34:38.085Z,9.98
2022-12-14T06:37:06.284Z,9.65
2022-12-14T06:39:33.201Z,9.98
2022-12-14T06:41:59.950Z,9.85
2022-12-14T06:44:26.725Z,9.10
2022-12-14T06:46:53.711Z,9.73
2022-12-14T06:49:20.589Z,9.45
2022-12-14T06:51:47.676Z,9.05
2022-12-14T06:54:16.123Z,9.85
2022-12-14T06:56:45.378Z,9.25
2022-12-14T06:59:13.165Z,9.38
2022-12-14T07:01:40.782Z,9.20
2022-12-14T07:04:08.707Z,9.82
2022-12-14T07:06:39.602Z,9.63
2022-12-14T07:09:12.183Z,9.48
2022-12-14T07:11:39.604Z,9.30
2022-12-14T07:14:07.281Z,9.80
2022-12-14T07:16:37.007Z,9.35
2022-12-14T07:19:04.983Z,9.20
2022-12-14T07:21:32.765Z,9.60
2022-12-14T07:24:01.183Z,9.65
2022-12-14T07:26:28.977Z,9.95
2022-12-14T07:28:57.978Z,9.30
2022-12-14T07:31:26.745Z,8.90
2022-12-14T07:33:55.634Z,10.38
2022-12-14T07:36:24.400Z,9.98
2022-12-14T07:38:51.940Z,9.50
2022-12-14T07:41:22.773Z,9.77
2022-12-14T07:43:51.303Z,10.15
2022-12-14T07:46:21.220Z,9.82
2022-12-14T07:48:50.803Z,9.05
2022-12-14T07:51:20.628Z,9.43
2022-12-14T07:53:47.753Z,10.05
2022-12-14T07:56:17.123Z,9.55
2022-12-14T07:58:44.337Z,10.20
2022-12-14T08:01:14.023Z,9.15
2022-12-14T08:03:43.341Z,8.95
2022-12-14T08:06:11.730Z,10.73
2022-12-14T08:08:38.787Z,9.52
2022-12-14T08:11:06.301Z,8.93
2022-12-14T08:13:33.628Z,8.88
2022-12-14T08:16:09.580Z,9.35
2022-12-14T08:18:36.589Z,9.43
2022-12-14T08:21:05.620Z,10.70
2022-12-14T08:23:33.826Z,10.02
2022-12-14T08:26:02.015Z,9.80
2022-12-14T08:28:30.873Z,10.10
2022-12-14T08:30:58.255Z,10.65
2022-12-14T08:33:25.071Z,10.48
2022-12-14T08:35:51.951Z,10.13
2022-12-14T08:38:18.739Z,11.00
2022-12-14T08:40:45.629Z,11.82
2022-12-14T08:43:12.450Z,10.68
2022-12-14T08:45:39.255Z,11.18
2022-12-14T08:48:06.206Z,10.68
2022-12-14T08:50:33.036Z,11.30
2022-12-14T08:52:59.780Z,11.15
2022-12-14T08:55:30.172Z,10.88
2022-12-14T08:58:03.600Z,10.65
2022-12-14T09:00:30.428Z,11.48
2022-12-14T09:02:57.386Z,11.98
2022-12-14T09:05:24.215Z,11.88
2022-12-14T09:07:51.246Z,12.20
2022-12-14T09:10:18.002Z,12.00
2022-12-14T09:12:44.756Z,11.80
2022-12-14T09:15:11.889Z,11.77
2022-12-14T09:17:38.713Z,12.13
2022-12-14T09:20:06.482Z,12.32
2022-12-14T09:22:33.248Z,11.95
2022-12-14T09:25:00.447Z,13.73
2022-12-14T09:27:27.314Z,13.80
2022-12-14T09:29:54.058Z,13.13
2022-12-14T09:32:20.894Z,13.13
2022-12-14T09:34:47.628Z,13.00
2022-12-14T09:37:14.442Z,12.25
2022-12-14T09:39:41.140Z,14.05
2022-12-14T09:42:50.668Z,13.68
2022-12-14T09:45:30.508Z,14.07
2022-12-14T09:48:25.021Z,13.40
2022-12-14T09:50:53.367Z,14.63
2022-12-14T09:53:21.802Z,14.20
2022-12-14T09:55:55.624Z,14.30
2022-12-14T09:58:28.984Z,13.88
2022-12-14T10:01:17.800Z,15.13
2022-12-14T10:04:00.297Z,15.15
2022-12-14T10:06:51.262Z,14.38
2022-12-14T10:09:44.686Z,15.15
2022-12-14T10:12:21.238Z,14.88
2022-12-14T10:15:10.077Z,14.73
2022-12-14T10:17:58.409Z,15.02
2022-12-14T10:20:56.926Z,14.13
2022-12-14T10:23:25.928Z,13.32
2022-12-14T10:25:56.725Z,14.23
2022-12-14T10:28:42.080Z,14.82
2022-12-14T10:31:14.703Z,14.52
2022-12-14T10:33:46.789Z,13.85
2022-12-14T10:36:24.279Z,15.15
2022-12-14T10:39:00.051Z,16.42
2022-12-14T10:41:42.273Z,16.30
2022-12-14T10:44:50.283Z,16.55
2022-12-14T10:47:42.605Z,14.35
2022-12-14T10:50:14.989Z,15.27
2022-12-14T10:52:44.730Z,15.85
2022-12-14T10:55:38.277Z,17.00
2022-12-14T10:58:05.013Z,16.48
2022-12-14T11:00:31.732Z,15.43
2022-12-14T11:02:58.868Z,16.13
2022-12-14T11:05:37.603Z,15.07
2022-12-14T11:08:08.826Z,16.23
2022-12-14T11:10:39.303Z,17.73
2022-12-14T11:13:08.898Z,16.40
2022-12-14T11:15:41.787Z,16.27
2022-12-14T11:18:18.002Z,14.52
2022-12-14T11:20:50.738Z,16.08
2022-12-14T11:23:18.780Z,14.68
2022-12-14T11:25:49.007Z,17.35
2022-12-14T11:28:39.075Z,14.68
2022-12-14T11:31:13.130Z,14.93
2022-12-14T11:33:57.941Z,15.60
2022-12-14T11:36:26.737Z,14.88
2022-12-14T11:39:25.647Z,14.60
2022-12-14T11:42:02.030Z,13.80
2022-12-14T11:44:36.169Z,14.70
2022-12-14T11:47:15.829Z,15.02
2022-12-14T11:49:44.738Z,14.93
2022-12-14T11:52:17.242Z,14.32
2022-12-14T11:54:54.314Z,14.82
2022-12-14T11:57:30.524Z,15.55
2022-12-14T12:00:01.285Z,15.90
2022-12-14T12:02:33.869Z,14.00
2022-12-14T12:05:14.142Z,14.95
2022-12-14T12:07:49.196Z,15.90
2022-12-14T12:10:37.568Z,14.18
2022-12-14T12:13:10.135Z,13.73
2022-12-14T12:15:42.327Z,15.23
2022-12-14T12:18:47.991Z,14.85
2022-12-14T12:21:42.426Z,13.82
2022-12-14T12:24:27.056Z,13.70
2022-12-14T12:26:56.798Z,13.27
2022-12-14T12:29:48.318Z,14.60
2022-12-14T12:32:21.579Z,15.02
2022-12-14T12:34:54.113Z,15.43
2022-12-14T12:37:55.855Z,13.88
2022-12-14T12:40:31.396Z,14.05
2022-12-14T12:43:13.182Z,15.00
2022-12-14T12:45:52.453Z,15.73
2022-12-14T12:48:40.420Z,14.15
2022-12-14T12:51:19.145Z,16.63
2022-12-14T12:53:56.071Z,15.65
2022-12-14T12:56:43.944Z,15.80
2022-12-14T12:59:39.860Z,14.65
2022-12-14T13:02:32.016Z,15.45
2022-12-14T13:05:21.983Z,15.50
2022-12-14T13:08:13.445Z,14.70
2022-12-14T13:11:02.331Z,13.77
2022-12-14T13:13:36.530Z,15.40
2022-12-14T13:16:16.318Z,13.45
2022-12-14T13:19:02.083Z,15.57
2022-12-14T13:21:42.235Z,15.60
2022-12-14T13:24:16.942Z,15.43
2022-12-14T13:27:13.772Z,15.05
2022-12-14T13:30:11.527Z,15.25
2022-12-14T13:32:59.768Z,15.90
2022-12-14T13:35:56.835Z,15.63
2022-12-14T13:38:58.525Z,15.38
2022-12-14T13:41:51.510Z,15.30
2022-12-14T13:44:59.703Z,14.35
2022-12-14T13:47:41.239Z,14.77
2022-12-14T13:50:39.168Z,15.27
2022-12-14T13:53:15.021Z,14.43
2022-12-14T13:55:56.398Z,14.52
2022-12-14T13:58:44.532Z,14.98
2022-12-14T14:01:35.824Z,15.15
2022-12-14T14:04:13.343Z,14.63
2022-12-14T14:06:42.013Z,14.65
2022-12-14T14:09:29.731Z,15.90
2022-12-14T14:11:58.537Z,16.65
2022-12-14T14:14:45.006Z,15.45
2022-12-14T14:17:28.528Z,15.73
2022-12-14T14:19:57.481Z,15.52
2022-12-14T14:22:27.367Z,16.02
2022-12-14T14:25:38.934Z,16.52
2022-12-14T14:28:11.648Z,15.02
2022-12-14T14:30:43.760Z,17.52
2022-12-14T14:33:49.334Z,15.05
2022-12-14T14:36:33.729Z,16.10
2022-12-14T14:39:03.203Z,16.98
2022-12-14T14:41:38.274Z,18.17
2022-12-14T14:44:36.167Z,18.38
2022-12-14T14:47:12.131Z,18.38
2022-12-14T14:49:41.806Z,17.38
2022-12-14T14:52:39.544Z,17.65
2022-12-14T14:55:53.403Z,17.27
2022-12-14T14:58:24.839Z,16.77
2022-12-14T15:01:06.626Z,18.05
2022-12-14T15:04:06.060Z,17.90
2022-12-14T15:06:41.791Z,17.83
2022-12-14T15:09:33.998Z,18.50
2022-12-14T15:12:22.620Z,18.23
2022-12-14T15:14:56.380Z,17.25
2022-12-14T15:17:25.006Z,17.92
2022-12-14T15:19:53.969Z,17.73
2022-12-14T15:22:42.953Z,18.67
2022-12-14T15:25:31.799Z,17.95
2022-12-14T15:28:05.463Z,17.63
2022-12-14T15:30:32.386Z,18.33
2022-12-14T15:33:10.326Z,17.30
2022-12-14T15:35:40.420Z,18.52
2022-12-14T15:38:16.623Z,17.85
2022-12-14T15:40:57.463Z,18.42
2022-12-14T15:43:25.717Z,19.48
2022-12-14T15:45:56.010Z,18.42
2022-12-14T15:48:30.074Z,20.35
2022-12-14T15:51:10.710Z,20.70
2022-12-14T15:53:49.961Z,18.98
2022-12-14T15:56:17.158Z,20.85
2022-12-14T16:01:32.976Z,19.58
2022-12-14T16:04:05.996Z,19.15
2022-12-14T16:06:38.067Z,19.48
2022-12-14T16:09:23.599Z,19.83
2022-12-14T16:11:54.592Z,20.33
2022-12-14T16:14:32.932Z,18.92
2022-12-14T16:17:00.711Z,20.27
2022-12-14T16:19:45.016Z,20.65
2022-12-14T16:22:23.795Z,22.13
2022-12-14T16:25:07.484Z,19.30
2022-12-14T16:27:43.998Z,20.52
2022-12-14T16:30:26.256Z,19.33
2022-12-14T16:33:19.995Z,21.55
2022-12-14T16:35:58.101Z,21.67
2022-12-14T16:38:42.555Z,21.02
2022-12-14T16:41:09.646Z,21.55
2022-12-14T16:43:39.319Z,20.70
2022-12-14T16:46:10.966Z,21.00
2022-12-14T16:49:20.516Z,22.55
2022-12-14T16:52:12.935Z,21.48
2022-12-14T16:54:39.854Z,21.98
2022-12-14T16:57:19.758Z,22.30
2022-12-14T16:59:48.658Z,21.92
2022-12-14T17:02:30.005Z,23.20
2022-12-14T17:04:59.769Z,22.70
2022-12-14T17:07:29.961Z,22.08
2022-12-14T17:09:57.020Z,24.55
2022-12-14T17:12:25.892Z,23.25
2022-12-14T17:14:53.926Z,23.50
2022-12-14T17:17:34.907Z,23.42
2022-12-14T17:20:07.892Z,22.95
2022-12-14T17:22:36.198Z,23.42
2022-12-14T17:25:03.039Z,24.83
2022-12-14T17:27:30.488Z,23.83
2022-12-14T17:29:57.557Z,23.40
2022-12-14T17:32:29.633Z,23.55
2022-12-14T17:34:56.576Z,25.33
2022-12-14T17:37:24.855Z,24.30
2022-12-14T17:39:52.223Z,23.17
2022-12-14T17:42:20.934Z,23.08
2022-12-14T17:44:57.857Z,23.85
2022-12-14T17:47:25.165Z,25.33
2022-12-14T17:49:51.946Z,24.20
2022-12-14T17:52:23.698Z,25.50
2022-12-14T17:54:50.554Z,23.90
2022-12-14T17:57:22.224Z,23.25
2022-12-14T18:00:10.044Z,24.52
2022-12-14T18:02:37.934Z,24.42
2022-12-14T18:05:07.171Z,25.50
2022-12-14T18:07:34.338Z,30.05
2022-12-14T18:10:04.275Z,34.45
2022-12-14T18:12:31.183Z,30.30
2022-12-14T18:14:58.321Z,29.67
2022-12-14T18:17:25.238Z,29.40
2022-12-14T18:19:52.145Z,28.75
2022-12-14T18:22:19.352Z,29.10
2022-12-14T18:24:49.226Z,29.25
2022-12-14T18:27:16.280Z,29.38
2022-12-14T18:29:43.676Z,28.05
2022-12-14T18:32:14.767Z,28.30
2022-12-14T18:34:41.709Z,30.13
2022-12-14T18:37:08.864Z,30.50
2022-12-14T18:39:35.676Z,30.48
2022-12-14T18:42:05.841Z,33.55
2022-12-14T18:44:35.748Z,31.27
2022-12-14T18:47:33.073Z,31.65
2022-12-14T18:49:49.912Z,33.47
2022-12-14T18:52:16.709Z,34.15
2022-12-14T18:54:43.926Z,33.50
2022-12-14T18:57:11.486Z,32.38
2022-12-14T18:59:42.400Z,34.95
2022-12-14T19:02:14.832Z,34.25
2022-12-14T19:04:41.779Z,34.42
2022-12-14T19:07:08.923Z,34.13
2022-12-14T19:09:35.777Z,35.50
2022-12-14T19:12:02.595Z,35.67
2022-12-14T19:14:29.355Z,35.28
2022-12-14T19:16:56.175Z,33.08
2022-12-14T19:19:24.903Z,29.58
2022-12-14T19:21:53.460Z,34.03
2022-12-14T19:24:20.290Z,50.55
2022-12-14T19:26:49.519Z,35.28
2022-12-14T19:29:16.504Z,32.35
2022-12-14T19:31:43.340Z,30.30
2022-12-14T19:34:10.357Z,32.88
2022-12-14T19:36:37.098Z,31.33
2022-12-14T19:39:04.316Z,31.23
2022-12-14T19:41:31.113Z,30.85
2022-12-14T19:43:58.246Z,30.20
2022-12-14T19:46:25.669Z,29.10
2022-12-14T19:48:52.704Z,30.00
2022-12-14T19:51:20.455Z,30.23
2022-12-14T19:53:47.498Z,30.67
2022-12-14T19:56:16.893Z,29.65
2022-12-14T19:58:44.148Z,30.23
2022-12-14T20:01:13.151Z,31.33
2022-12-14T20:03:40.866Z,29.83
2022-12-14T20:06:08.343Z,30.17
2022-12-14T20:08:36.565Z,29.65
2022-12-14T20:11:11.537Z,28.60
2022-12-14T20:13:38.829Z,31.02
2022-12-14T20:16:06.003Z,30.33
2022-12-14T20:18:32.919Z,32.80
2022-12-14T20:21:08.846Z,34.35
2022-12-14T20:23:37.339Z,34.30
2022-12-14T20:26:10.890Z,33.28
2022-12-14T20:28:37.698Z,32.90
2022-12-14T20:31:09.936Z,34.90
2022-12-14T20:33:38.876Z,33.22
2022-12-14T20:36:06.473Z,34.72
2022-12-14T20:38:33.413Z,33.97
2022-12-14T20:41:10.596Z,33.78
2022-12-14T20:43:40.978Z,33.80
2022-12-14T20:46:21.596Z,32.38
2022-12-14T20:48:48.447Z,31.42
2022-12-14T20:51:15.389Z,33.03
2022-12-14T20:53:42.372Z,33.33
2022-12-14T20:56:09.466Z,33.47
2022-12-14T20:58:36.826Z,32.65
2022-12-14T21:01:15.424Z,32.97
2022-12-14T21:03:49.970Z,33.83
2022-12-14T21:06:20.596Z,33.60
2022-12-14T21:09:09.344Z,32.30
2022-12-14T21:12:04.720Z,32.17
2022-12-14T21:14:37.849Z,32.42
2022-12-14T21:17:08.615Z,33.53
2022-12-14T21:19:36.460Z,32.55
2022-12-14T21:22:04.388Z,31.80
2022-12-14T21:25:01.138Z,31.85
2022-12-14T21:27:23.982Z,29.75
2022-12-14T21:32:19.700Z,30.17
2022-12-14T21:34:50.322Z,29.77
2022-12-14T21:37:17.911Z,30.00
2022-12-14T21:39:52.313Z,31.67
2022-12-14T21:42:22.122Z,30.80
2022-12-14T21:44:50.930Z,30.33
2022-12-14T21:47:27.243Z,29.50
2022-12-14T21:49:57.860Z,30.40
2022-12-14T21:52:30.074Z,31.42
2022-12-14T21:54:58.962Z,30.60
2022-12-14T21:57:49.510Z,29.33
2022-12-14T22:00:16.880Z,30.45
2022-12-14T22:02:44.096Z,27.75
2022-12-14T22:05:11.277Z,30.52
2022-12-14T22:07:38.013Z,30.60
2022-12-14T22:10:05.341Z,29.75
2022-12-14T22:12:32.319Z,29.55
2022-12-14T22:14:59.117Z,28.73
2022-12-14T22:17:26.607Z,28.17
2022-12-14T22:19:55.105Z,28.27
2022-12-14T22:22:22.313Z,28.17
2022-12-14T22:24:51.051Z,30.67
2022-12-14T22:27:18.197Z,31.50
2022-12-14T22:29:45.003Z,30.58
2022-12-14T22:32:12.551Z,27.88
2022-12-14T22:34:39.681Z,31.63
2022-12-14T22:37:06.439Z,29.35
2022-12-14T22:39:33.319Z,29.52
2022-12-14T22:42:00.297Z,29.58
2022-12-14T22:44:27.198Z,30.10
2022-12-14T22:46:54.284Z,29.10
2022-12-14T22:49:21.123Z,28.52
2022-12-14T22:51:47.899Z,27.88
2022-12-14T22:54:26.029Z,29.08
2022-12-14T22:57:15.189Z,27.98
2022-12-14T22:59:59.221Z,26.50
2022-12-14T23:02:26.339Z,27.90
2022-12-14T23:04:53.248Z,26.90
2022-12-14T23:07:19.996Z,25.17
2022-12-14T23:10:05.265Z,26.88
2022-12-14T23:12:50.726Z,24.60
2022-12-14T23:15:36.303Z,23.65
2022-12-14T23:18:26.094Z,23.60
2022-12-14T23:21:12.313Z,23.88
2022-12-14T23:23:59.752Z,24.95
2022-12-14T23:26:45.141Z,25.77
2022-12-14T23:29:30.898Z,24.27
2022-12-14T23:32:16.442Z,25.10
2022-12-14T23:35:02.169Z,22.55
2022-12-14T23:37:47.665Z,23.80
2022-12-14T23:40:33.357Z,25.13
2022-12-14T23:43:27.089Z,24.40
2022-12-14T23:46:12.589Z,23.90
2022-12-14T23:48:57.893Z,23.45
2022-12-14T23:51:43.460Z,23.13
2022-12-14T23:54:28.889Z,24.10
2022-12-14T23:57:14.573Z,23.30
2022-12-14T23:59:59.986Z,22.45
